Time;durP1;ratioP1;P1;durP2;ratioP2;P2;SDS_P1;SDS_P2;PMS_P1;PMS_P2;Temp;Humidity;BMP_temperature;BMP_pressure;BME280_temperature;BME280_humidity;BME280_pressure;Samples;Min_cycle;Max_cycle;Signal;HPM_P1;HPM_P2
2022/05/27 00:00:44;;;;;;;;;1.00;1.00;;;;;18.44;51.88;101969.91;5134105;27;44982;-84
2022/05/27 00:03:11;;;;;;;;;0.75;0.75;;;;;18.65;51.68;102008.50;5134508;27;45261;-82
2022/05/27 00:05:37;;;;;;;;;0.75;0.75;;;;;18.43;52.38;101967.22;5115271;27;47295;-83
2022/05/27 00:08:02;;;;;;;;;1.00;1.00;;;;;18.29;51.76;101943.84;5126669;27;45122;-83
2022/05/27 00:10:28;;;;;;;;;0.25;0.25;;;;;18.45;51.60;101971.69;5112968;27;45019;-83
2022/05/27 00:12:53;;;;;;;;;2.00;1.25;;;;;18.55;52.19;101987.00;5113252;27;45130;-83
2022/05/27 00:15:19;;;;;;;;;1.00;0.75;;;;;18.27;52.08;101932.28;5113524;27;45652;-82
2022/05/27 00:17:45;;;;;;;;;0.00;0.00;;;;;18.13;51.88;101909.78;5112913;27;45005;-85
2022/05/27 00:20:10;;;;;;;;;0.50;0.50;;;;;18.62;52.25;101992.44;5119858;27;45329;-87
2022/05/27 00:22:36;;;;;;;;;1.75;0.75;;;;;18.48;52.29;101963.78;5098974;27;45293;-84
2022/05/27 00:25:02;;;;;;;;;0.00;0.00;;;;;18.64;52.39;101980.97;5127913;27;46031;-84
2022/05/27 00:27:28;;;;;;;;;0.75;0.75;;;;;18.36;52.28;101941.31;5102995;27;45392;-82
2022/05/27 00:29:54;;;;;;;;;1.00;1.00;;;;;18.12;51.93;101904.41;5130098;27;45182;-83
2022/05/27 00:32:19;;;;;;;;;0.00;0.00;;;;;18.23;52.58;101938.38;5124015;27;45614;-81
2022/05/27 00:34:47;;;;;;;;;0.75;0.75;;;;;18.10;52.91;101923.00;5118831;27;45737;-83
2022/05/27 00:37:14;;;;;;;;;0.75;0.75;;;;;18.35;53.13;101975.00;5127332;27;45244;-85
2022/05/27 00:39:40;;;;;;;;;0.75;0.75;;;;;18.31;53.01;101978.47;5116652;27;45493;-81
2022/05/27 00:42:06;;;;;;;;;0.75;0.75;;;;;17.96;52.66;101921.78;5123367;27;45231;-84
2022/05/27 00:44:31;;;;;;;;;1.25;0.75;;;;;17.97;52.89;101924.47;5124578;27;45374;-84
2022/05/27 00:47:04;;;;;;;;;0.00;0.00;;;;;17.87;53.42;101924.22;5124756;27;45182;-82
2022/05/27 00:49:31;;;;;;;;;0.25;0.25;;;;;17.90;53.45;101932.28;5131339;27;45011;-83
2022/05/27 00:52:09;;;;;;;;;1.00;0.75;;;;;17.95;53.67;101952.81;5114742;27;45281;-81
2022/05/27 00:54:35;;;;;;;;;1.25;0.75;;;;;17.25;53.37;101839.41;5132308;27;45468;-80
2022/05/27 00:57:05;;;;;;;;;0.50;0.50;;;;;17.88;54.21;101953.53;5132091;27;45565;-82
2022/05/27 00:59:41;;;;;;;;;1.00;1.00;;;;;17.82;54.42;101961.34;5133164;27;45159;-82
2022/05/27 01:02:07;;;;;;;;;1.00;0.50;;;;;17.78;54.20;101962.13;5132396;27;45188;-82
2022/05/27 01:04:34;;;;;;;;;0.25;0.25;;;;;17.52;54.75;101930.44;5132485;27;45815;-82
2022/05/27 01:07:00;;;;;;;;;2.25;0.50;;;;;17.40;54.43;101914.22;5132941;27;45277;-82
2022/05/27 01:09:28;;;;;;;;;1.25;0.75;;;;;17.48;55.30;101932.97;5133730;27;45136;-81
2022/05/27 01:11:56;;;;;;;;;0.50;0.50;;;;;17.61;55.16;101960.78;5112587;27;45051;-82
2022/05/27 01:14:41;;;;;;;;;1.00;1.00;;;;;17.60;55.46;101970.53;5094124;27;47268;-84
2022/05/27 01:17:37;;;;;;;;;0.50;0.50;;;;;17.35;55.68;101929.13;5119473;27;45340;-84
2022/05/27 01:20:21;;;;;;;;;1.50;1.00;;;;;17.68;55.51;101968.03;5111132;27;45560;-85
2022/05/27 01:23:27;;;;;;;;;1.00;1.00;;;;;17.53;55.07;101931.34;5125940;27;45029;-85
2022/05/27 01:25:56;;;;;;;;;0.50;0.50;;;;;17.78;55.48;101963.06;5132318;27;46229;-83
2022/05/27 01:28:36;;;;;;;;;0.50;0.50;;;;;17.62;55.06;101930.69;5132637;27;45557;-86
2022/05/27 01:31:26;;;;;;;;;0.50;0.50;;;;;17.84;54.88;101974.72;5113719;27;45215;-83
2022/05/27 01:34:10;;;;;;;;;0.50;0.50;;;;;17.82;54.71;101964.00;5113825;27;45076;-84
2022/05/27 01:37:07;;;;;;;;;0.50;0.50;;;;;17.75;54.90;101959.41;5114547;27;46282;-84
2022/05/27 01:39:53;;;;;;;;;0.50;0.50;;;;;17.55;54.69;101929.63;5114662;27;45476;-81
2022/05/27 01:42:28;;;;;;;;;1.75;1.50;;;;;17.33;54.77;101909.56;5114197;27;45229;-81
2022/05/27 01:45:17;;;;;;;;;0.50;0.50;;;;;17.47;54.95;101952.47;5113684;27;45575;-84
2022/05/27 01:47:55;;;;;;;;;3.00;2.00;;;;;17.15;54.98;101914.44;5113094;27;47478;-82
2022/05/27 01:50:28;;;;;;;;;1.25;1.25;;;;;17.35;55.50;101944.19;5114066;27;45565;-82
2022/05/27 01:53:17;;;;;;;;;2.25;1.50;;;;;17.32;55.38;101945.00;5132562;27;45272;-84
2022/05/27 01:55:55;;;;;;;;;3.00;3.00;;;;;17.10;55.05;101913.41;5113747;27;45187;-80
2022/05/27 01:58:31;;;;;;;;;2.00;1.25;;;;;17.08;55.40;101908.03;5133288;27;45689;-83
2022/05/27 02:00:56;;;;;;;;;1.00;1.00;;;;;16.84;55.50;101876.41;5113690;27;45556;-81
2022/05/27 02:03:29;;;;;;;;;1.75;1.75;;;;;17.20;55.75;101958.88;5132335;27;45009;-82
2022/05/27 02:06:03;;;;;;;;;3.00;2.00;;;;;16.94;55.45;101906.78;5132530;27;45425;-84
2022/05/27 02:09:00;;;;;;;;;1.50;1.50;;;;;17.13;56.14;101956.88;5132075;27;46002;-83
2022/05/27 02:11:27;;;;;;;;;2.75;2.25;;;;;16.88;56.46;101907.50;5113772;27;45598;-81
2022/05/27 02:14:33;;;;;;;;;2.00;1.00;;;;;16.96;55.97;101929.88;5132410;27;45018;-86
2022/05/27 02:17:06;;;;;;;;;2.75;2.00;;;;;17.03;56.10;101944.19;5127938;27;45041;-81
2022/05/27 02:20:05;;;;;;;;;2.50;2.00;;;;;16.92;56.44;101929.75;5132154;27;45495;-84
2022/05/27 02:22:40;;;;;;;;;2.00;1.25;;;;;16.93;56.32;101932.44;5116117;27;45656;-85
2022/05/27 02:25:32;;;;;;;;;2.00;1.75;;;;;16.70;56.88;101891.06;5131638;27;45364;-86
2022/05/27 02:28:15;;;;;;;;;4.00;3.50;;;;;16.99;56.82;101940.59;5132698;27;45310;-83
2022/05/27 02:30:45;;;;;;;;;2.00;2.00;;;;;16.93;57.31;101932.44;5130750;27;45738;-83
2022/05/27 02:36:05;;;;;;;;;2.00;2.00;;;;;16.63;56.86;101871.38;5131898;27;45179;-87
2022/05/27 02:38:31;;;;;;;;;2.00;1.75;;;;;17.12;57.29;101952.44;5132317;27;45402;-82
2022/05/27 02:41:33;;;;;;;;;2.00;2.00;;;;;17.16;56.77;101951.66;5131420;27;45389;-85
2022/05/27 02:44:38;;;;;;;;;1.75;1.75;;;;;17.13;57.15;101934.72;5132103;27;45261;-85
2022/05/27 02:47:27;;;;;;;;;1.00;1.00;;;;;17.03;56.42;101902.59;5089729;27;45673;-84
2022/05/27 02:49:59;;;;;;;;;1.00;1.00;;;;;17.34;56.07;101951.25;5131860;27;45034;-82
2022/05/27 02:52:48;;;;;;;;;2.00;1.00;;;;;17.36;56.35;101952.19;5132179;27;46212;-86
2022/05/27 02:55:33;;;;;;;;;2.00;1.25;;;;;17.29;55.61;101931.66;5131528;27;45328;-82
2022/05/27 02:58:02;;;;;;;;;2.50;2.50;;;;;17.32;55.79;101934.34;5131915;27;45441;-82
2022/05/27 03:00:31;;;;;;;;;2.50;2.50;;;;;17.17;55.82;101904.75;5113100;27;45285;-83
2022/05/27 03:03:06;;;;;;;;;2.00;2.00;;;;;17.43;55.56;101948.81;5112431;27;47325;-88
2022/05/27 03:06:09;;;;;;;;;1.50;1.25;;;;;17.03;55.81;101875.16;5131994;27;45069;-82
2022/05/27 03:08:52;;;;;;;;;1.50;1.00;;;;;17.12;55.87;101890.44;5091836;27;45778;-85
2022/05/27 03:11:29;;;;;;;;;2.75;2.00;;;;;17.46;55.70;101950.66;5115458;27;45193;-83
2022/05/27 03:14:28;;;;;;;;;3.00;2.25;;;;;17.04;55.99;101874.28;5110657;27;45429;-85
2022/05/27 03:17:05;;;;;;;;;1.75;1.75;;;;;17.45;55.96;101951.53;5079564;27;45468;-86
2022/05/27 03:19:47;;;;;;;;;1.75;1.75;;;;;17.34;55.72;101935.31;5092399;27;45202;-81
2022/05/27 03:22:38;;;;;;;;;2.00;2.00;;;;;17.45;56.10;101944.47;5110809;27;45127;-83
2022/05/27 03:25:24;;;;;;;;;3.50;2.00;;;;;17.15;55.81;101890.53;5096396;27;46050;-81
2022/05/27 03:28:01;;;;;;;;;3.00;3.00;;;;;17.46;56.05;101951.56;5091771;27;45633;-81
2022/05/27 03:30:32;;;;;;;;;1.50;1.50;;;;;17.20;56.40;101900.41;5110957;27;45364;-81
2022/05/27 03:33:08;;;;;;;;;2.50;2.50;;;;;17.25;56.02;101912.06;5091812;27;45172;-82
2022/05/27 03:35:43;;;;;;;;;2.00;2.00;;;;;17.49;55.80;101951.66;5109902;27;45805;-83
2022/05/27 03:38:19;;;;;;;;;2.75;2.00;;;;;17.47;56.40;101953.34;5109952;27;45943;-85
2022/05/27 03:40:56;;;;;;;;;3.25;3.00;;;;;17.32;56.26;101934.34;5109777;27;45083;-84
2022/05/27 03:43:23;;;;;;;;;2.00;2.00;;;;;17.24;56.18;101915.56;5110240;27;45018;-83
2022/05/27 03:45:54;;;;;;;;;4.75;4.25;;;;;17.43;56.18;101958.56;5109215;27;45308;-80
2022/05/27 03:48:22;;;;;;;;;2.50;2.50;;;;;17.18;56.12;101918.03;5110130;27;45131;-81
2022/05/27 03:50:51;;;;;;;;;3.50;3.50;;;;;17.28;56.21;101935.13;5110023;27;45173;-84
2022/05/27 03:53:20;;;;;;;;;1.25;1.25;;;;;17.18;56.43;101930.44;5110698;27;45307;-82
2022/05/27 03:55:45;;;;;;;;;2.25;2.00;;;;;16.95;56.47;101880.28;5109276;27;45387;-81
2022/05/27 03:58:16;;;;;;;;;3.50;3.50;;;;;17.07;56.62;101903.59;5109767;27;45398;-85
2022/05/27 04:00:42;;;;;;;;;3.25;3.25;;;;;17.16;56.44;101935.72;5109668;27;45177;-83
2022/05/27 04:03:09;;;;;;;;;3.50;3.00;;;;;17.18;56.44;101939.31;5109168;27;45096;-85
2022/05/27 04:05:34;;;;;;;;;2.00;2.00;;;;;16.99;56.48;101903.41;5109798;27;45993;-84
2022/05/27 04:08:00;;;;;;;;;3.00;2.75;;;;;17.02;56.20;101924.72;5109898;27;44871;-86
2022/05/27 04:10:26;;;;;;;;;4.00;4.00;;;;;17.08;56.70;101928.41;5109852;27;45418;-87
2022/05/27 04:12:51;;;;;;;;;4.00;3.00;;;;;17.07;56.39;101929.25;5110372;27;45090;-83
2022/05/27 04:15:17;;;;;;;;;2.00;2.00;;;;;17.10;56.46;101932.00;5109701;27;45165;-82
2022/05/27 04:17:42;;;;;;;;;3.25;3.00;;;;;17.14;56.47;101941.84;5109698;27;45247;-83
2022/05/27 04:20:14;;;;;;;;;2.75;2.75;;;;;17.15;56.78;101946.31;5091430;27;45338;-83
2022/05/27 04:22:41;;;;;;;;;2.00;1.00;;;;;17.02;56.56;101931.78;5109124;27;45052;-81
2022/05/27 04:25:06;;;;;;;;;2.00;2.00;;;;;16.82;56.42;101896.72;5109499;27;46187;-81
2022/05/27 04:27:33;;;;;;;;;2.75;2.00;;;;;17.17;55.88;101971.16;5109736;27;45099;-81
2022/05/27 04:29:58;;;;;;;;;1.75;1.50;;;;;16.97;56.58;101942.28;5109926;27;45252;-84
2022/05/27 04:32:25;;;;;;;;;3.00;1.75;;;;;16.84;56.20;101920.66;5111272;27;45315;-86
2022/05/27 04:34:51;;;;;;;;;2.00;2.00;;;;;17.07;56.08;101966.44;5112761;27;46471;-85
2022/05/27 04:37:18;;;;;;;;;2.75;2.75;;;;;16.88;56.09;101930.50;5113197;27;45458;-84
2022/05/27 04:39:43;;;;;;;;;3.50;3.25;;;;;16.91;56.06;101942.13;5112840;27;45331;-81
2022/05/27 04:42:09;;;;;;;;;2.50;2.50;;;;;16.99;56.15;101958.25;5112996;27;45003;-82
2022/05/27 04:44:35;;;;;;;;;4.00;4.00;;;;;16.73;57.35;101915.94;5113222;27;45788;-85
2022/05/27 04:47:01;;;;;;;;;1.75;1.50;;;;;17.05;56.98;101974.38;5111730;27;45060;-84
2022/05/27 04:52:10;;;;;;;;;2.00;2.00;;;;;16.89;56.99;101945.56;5133993;27;45107;-87
2022/05/27 04:54:36;;;;;;;;;2.00;1.75;;;;;16.81;56.58;101929.44;5133321;27;45453;-83
2022/05/27 04:57:02;;;;;;;;;2.50;2.50;;;;;17.05;57.15;101963.75;5131795;27;45063;-83
2022/05/27 04:59:28;;;;;;;;;4.00;4.00;;;;;16.93;57.20;101958.09;5115233;27;45515;-82
2022/05/27 05:01:54;;;;;;;;;7.00;6.25;;;;;17.02;57.16;101980.50;5132147;27;45268;-84
2022/05/27 05:04:19;;;;;;;;;4.00;4.00;;;;;16.64;57.11;101906.78;5133335;27;45470;-84
2022/05/27 05:06:45;;;;;;;;;3.00;3.00;;;;;16.69;57.40;101915.78;5133221;27;45389;-82
2022/05/27 05:09:11;;;;;;;;;2.25;2.25;;;;;16.92;57.23;101965.16;5133124;27;45102;-85
2022/05/27 05:11:37;;;;;;;;;3.50;2.50;;;;;16.67;57.83;101928.13;5133289;27;45186;-84
2022/05/27 05:14:02;;;;;;;;;3.75;3.50;;;;;16.67;57.96;101925.47;5133158;27;45685;-83
2022/05/27 05:16:28;;;;;;;;;3.00;3.00;;;;;16.44;57.68;101885.88;5122146;27;45140;-80
2022/05/27 05:18:53;;;;;;;;;2.50;2.50;;;;;16.67;58.13;101923.72;5112342;27;45061;-82
2022/05/27 05:21:19;;;;;;;;;2.00;2.00;;;;;17.01;57.62;101976.06;5112926;27;45394;-87
2022/05/27 05:23:44;;;;;;;;;4.50;3.00;;;;;16.88;58.15;101954.41;5121118;27;45367;-82
2022/05/27 05:26:11;;;;;;;;;3.00;3.00;;;;;16.97;58.03;101967.94;5131907;27;45149;-83
2022/05/27 05:28:37;;;;;;;;;4.75;3.75;;;;;16.69;57.67;101924.63;5133168;27;45132;-82
2022/05/27 05:31:02;;;;;;;;;5.00;5.00;;;;;16.72;58.03;101921.22;5132342;27;45163;-83
2022/05/27 05:33:28;;;;;;;;;4.00;2.00;;;;;16.97;57.79;101968.84;5129780;27;45916;-84
2022/05/27 05:35:53;;;;;;;;;3.00;3.00;;;;;16.87;58.42;101957.94;5120421;27;45158;-80
2022/05/27 05:38:19;;;;;;;;;3.00;3.00;;;;;16.86;58.28;101950.81;5113442;27;45166;-82
2022/05/27 05:40:49;;;;;;;;;2.50;2.00;;;;;16.60;58.50;101899.59;5122532;27;45315;-85
2022/05/27 05:43:15;;;;;;;;;2.50;2.50;;;;;16.97;58.53;101966.19;5101613;27;45777;-83
2022/05/27 05:45:40;;;;;;;;;2.75;2.75;;;;;16.83;58.61;101940.09;5125138;27;45077;-87
2022/05/27 05:48:06;;;;;;;;;2.75;2.75;;;;;16.87;58.17;101947.31;5122792;27;45273;-83
2022/05/27 05:50:33;;;;;;;;;3.00;3.00;;;;;16.87;58.39;101960.59;5131462;27;45370;-84
2022/05/27 05:52:58;;;;;;;;;3.25;2.00;;;;;16.84;58.68;101965.78;5130557;27;45881;-85
2022/05/27 05:55:24;;;;;;;;;3.25;3.25;;;;;16.54;59.06;101921.53;5130784;27;45162;-82
2022/05/27 05:57:50;;;;;;;;;4.00;4.00;;;;;16.85;59.54;101979.13;5128274;27;45980;-82
2022/05/27 06:00:26;;;;;;;;;4.75;3.00;;;;;16.73;59.28;101950.47;5130551;27;45328;-81
2022/05/27 06:02:52;;;;;;;;;2.75;2.25;;;;;17.00;59.06;101992.84;5122716;27;45274;-82
2022/05/27 06:05:19;;;;;;;;;2.00;2.00;;;;;16.80;59.56;101950.63;5112122;27;45330;-86
2022/05/27 06:07:45;;;;;;;;;3.00;2.75;;;;;16.64;58.76;101909.44;5131109;27;45272;-83
2022/05/27 06:10:13;;;;;;;;;3.25;3.25;;;;;16.81;59.23;101941.84;5123882;27;45361;-82
2022/05/27 06:12:38;;;;;;;;;3.00;2.00;;;;;16.80;59.47;101942.66;5121124;27;46732;-85
2022/05/27 06:15:08;;;;;;;;;3.00;2.00;;;;;16.86;59.68;101940.19;5108660;27;45487;-80
2022/05/27 06:17:33;;;;;;;;;2.00;2.00;;;;;17.08;59.09;101989.50;5112010;27;45541;-83
2022/05/27 06:19:59;;;;;;;;;2.50;2.50;;;;;16.63;59.83;101920.91;5105176;27;45580;-83
2022/05/27 06:22:25;;;;;;;;;2.00;2.00;;;;;16.79;59.76;101940.88;5108004;27;46165;-82
2022/05/27 06:24:51;;;;;;;;;3.75;3.00;;;;;16.88;59.83;101950.00;5114889;27;45478;-81
2022/05/27 06:27:16;;;;;;;;;1.25;1.00;;;;;16.85;58.98;101943.72;5099697;27;45410;-84
2022/05/27 06:35:09;;;;;;;;;2.75;2.00;;;;;16.92;59.15;101957.19;5115744;27;46054;-82
2022/05/27 06:37:35;;;;;;;;;2.00;2.00;;;;;17.01;59.89;101978.69;5117033;27;45362;-81
2022/05/27 06:40:01;;;;;;;;;2.00;2.00;;;;;17.12;60.00;101975.44;5128447;27;45202;-82
2022/05/27 06:42:27;;;;;;;;;2.50;2.50;;;;;16.76;60.04;101904.53;5127493;27;45638;-82
2022/05/27 06:44:52;;;;;;;;;3.00;2.50;;;;;17.11;59.16;101958.59;5127703;27;45240;-81
2022/05/27 06:47:18;;;;;;;;;2.25;2.25;;;;;17.17;59.69;101968.50;5129442;27;45226;-81
2022/05/27 06:49:44;;;;;;;;;2.50;2.50;;;;;17.13;59.64;101953.31;5120792;27;45595;-82
2022/05/27 06:52:11;;;;;;;;;3.75;3.75;;;;;17.03;59.17;101937.13;5111699;27;45229;-80
2022/05/27 06:54:37;;;;;;;;;4.00;4.00;;;;;17.39;59.48;101997.47;5124144;27;45852;-82
2022/05/27 06:57:05;;;;;;;;;2.00;1.75;;;;;17.34;59.26;101991.13;5121588;27;45632;-85
2022/05/27 06:59:32;;;;;;;;;1.50;1.50;;;;;17.26;59.75;101963.44;5123154;27;45438;-81
2022/05/27 07:01:57;;;;;;;;;1.25;1.00;;;;;17.27;58.99;101957.25;5124877;27;45235;-84
2022/05/27 07:04:22;;;;;;;;;1.00;1.00;;;;;17.17;58.77;101932.19;5125408;27;45410;-84
2022/05/27 07:06:48;;;;;;;;;2.00;2.00;;;;;17.46;58.84;101987.88;5112197;27;45445;-82
2022/05/27 07:09:20;;;;;;;;;2.00;2.00;;;;;17.47;59.50;101998.53;5099086;27;45477;-83
2022/05/27 07:11:48;;;;;;;;;2.75;2.00;;;;;17.18;59.72;101944.63;5090625;27;46795;-84
2022/05/27 07:14:15;;;;;;;;;2.00;2.00;;;;;17.53;59.32;101995.13;5090554;27;46090;-80
2022/05/27 07:16:42;;;;;;;;;1.75;1.75;;;;;17.31;59.79;101950.28;5090313;27;45408;-84
2022/05/27 07:19:08;;;;;;;;;1.00;1.00;;;;;17.26;59.08;101940.41;5091289;27;45531;-83
2022/05/27 07:21:44;;;;;;;;;2.00;2.00;;;;;17.54;59.00;101987.22;5090261;27;46177;-84
2022/05/27 07:24:13;;;;;;;;;3.00;3.00;;;;;17.45;59.66;101973.69;5090187;27;45408;-81
2022/05/27 07:26:40;;;;;;;;;3.25;2.50;;;;;17.62;59.04;102000.69;5090526;27;45428;-82
2022/05/27 07:29:06;;;;;;;;;3.00;3.00;;;;;17.49;59.11;101986.22;5090338;27;45466;-85
2022/05/27 07:31:34;;;;;;;;;4.75;3.50;;;;;17.33;59.51;101938.81;5090371;27;46047;-83
2022/05/27 07:33:59;;;;;;;;;3.25;3.00;;;;;17.57;58.86;101977.53;5090118;27;45516;-85
2022/05/27 07:36:24;;;;;;;;;3.00;3.00;;;;;17.38;59.25;101920.31;5090414;27;45708;-85
2022/05/27 07:38:52;;;;;;;;;3.00;3.00;;;;;17.92;58.79;101994.38;5090150;27;45360;-82
2022/05/27 07:41:19;;;;;;;;;2.00;2.00;;;;;17.98;58.23;101995.47;5090564;27;45424;-82
2022/05/27 07:43:44;;;;;;;;;3.25;3.25;;;;;18.00;58.35;102000.81;5089548;27;45895;-82
2022/05/27 07:46:11;;;;;;;;;3.50;3.50;;;;;17.73;58.80;101945.16;5072062;27;45716;-81
2022/05/27 07:48:37;;;;;;;;;2.00;2.00;;;;;17.99;58.61;101972.41;5090542;27;45406;-86
2022/05/27 07:51:03;;;;;;;;;3.00;2.25;;;;;17.85;59.11;101926.84;5089571;27;45882;-85
2022/05/27 07:53:28;;;;;;;;;2.25;1.75;;;;;18.28;57.74;101984.63;5090314;27;45370;-81
2022/05/27 07:55:53;;;;;;;;;3.00;2.75;;;;;18.21;58.25;101956.06;5089877;27;45383;-81
2022/05/27 07:58:19;;;;;;;;;3.75;3.50;;;;;18.09;58.27;101915.88;5089954;27;45452;-84
2022/05/27 08:00:44;;;;;;;;;2.25;1.50;;;;;18.28;57.45;101942.06;5089297;27;46176;-81
2022/05/27 08:03:10;;;;;;;;;2.75;2.50;;;;;18.32;57.08;101950.97;5089938;27;45512;-83
2022/05/27 08:05:35;;;;;;;;;2.75;2.75;;;;;18.39;58.07;101952.94;5089706;27;45837;-80
2022/05/27 08:08:02;;;;;;;;;2.75;2.50;;;;;18.75;57.78;101989.22;5093419;27;45582;-84
2022/05/27 08:10:30;;;;;;;;;3.75;3.50;;;;;18.66;57.47;101951.69;5093707;27;46572;-85
2022/05/27 08:12:56;;;;;;;;;4.50;4.50;;;;;18.63;56.73;101933.03;5093314;27;45788;-83
2022/05/27 08:15:22;;;;;;;;;3.00;3.00;;;;;18.98;56.87;101993.25;5093371;27;45336;-82
2022/05/27 08:17:48;;;;;;;;;5.00;4.25;;;;;18.83;57.32;101954.75;5093140;27;45451;-80
2022/05/27 08:20:20;;;;;;;;;5.00;5.00;;;;;19.01;56.37;101982.69;5092525;27;46431;-81
2022/05/27 08:22:47;;;;;;;;;4.00;4.00;;;;;18.77;56.14;101937.78;5092554;27;45496;-83
2022/05/27 08:25:14;;;;;;;;;4.00;4.00;;;;;18.94;56.26;101975.41;5093734;27;45474;-81
2022/05/27 08:27:39;;;;;;;;;4.00;4.00;;;;;18.87;56.25;101960.19;5092819;27;45515;-81
2022/05/27 08:30:07;;;;;;;;;5.25;4.25;;;;;18.82;56.37;101935.22;5092736;27;45534;-81
2022/05/27 08:32:32;;;;;;;;;3.75;3.75;;;;;19.11;57.34;101953.50;5074625;27;46174;-81
2022/05/27 08:38:01;;;;;;;;;3.00;3.00;;;;;19.29;55.76;101943.19;5092906;27;45438;-81
2022/05/27 08:40:48;;;;;;;;;4.75;4.00;;;;;19.49;55.85;101995.09;5074711;27;48023;-81
2022/05/27 08:43:58;;;;;;;;;5.25;4.75;;;;;19.22;55.54;101967.97;5092861;27;46191;-81
2022/05/27 08:46:29;;;;;;;;;5.00;3.25;;;;;19.26;55.98;101985.78;5070003;27;45550;-84
2022/05/27 08:48:59;;;;;;;;;5.00;3.25;;;;;18.93;56.25;101951.41;5092902;27;45408;-82
2022/05/27 08:51:30;;;;;;;;;6.00;5.25;;;;;18.65;56.47;101925.94;5092384;27;47980;-82
2022/05/27 08:54:02;;;;;;;;;5.25;4.75;;;;;18.74;56.96;101968.78;5092462;27;45948;-81
2022/05/27 08:59:40;;;;;;;;;4.75;4.25;;;;;18.69;57.12;101959.81;5092380;27;45426;-86
2022/05/27 09:02:48;;;;;;;;;4.75;4.75;;;;;18.93;57.05;101992.28;5091742;27;46271;-82
2022/05/27 09:05:36;;;;;;;;;5.00;4.75;;;;;18.97;57.39;101993.25;5035918;27;46091;-82
2022/05/27 09:08:12;;;;;;;;;5.00;4.25;;;;;19.06;57.31;101999.66;5092889;27;45422;-84
2022/05/27 09:10:58;;;;;;;;;4.25;4.25;;;;;19.13;57.27;101997.09;5102536;27;45785;-82
2022/05/27 09:13:47;;;;;;;;;3.50;2.75;;;;;18.79;56.62;101937.81;5113137;27;45902;-83
2022/05/27 09:16:33;;;;;;;;;4.50;3.00;;;;;18.96;56.78;101987.00;5093758;27;45504;-81
2022/05/27 09:19:00;;;;;;;;;4.25;3.50;;;;;19.01;57.23;102001.34;5112690;27;45504;-81
2022/05/27 09:21:44;;;;;;;;;5.00;4.00;;;;;18.96;57.23;102002.06;5113059;27;45389;-85
2022/05/27 09:24:42;;;;;;;;;4.25;4.00;;;;;18.70;57.11;101969.59;5112694;27;45458;-84
2022/05/27 09:28:02;;;;;;;;;4.00;4.00;;;;;18.87;57.58;101994.81;5112721;27;45696;-83
2022/05/27 09:30:32;;;;;;;;;3.25;3.25;;;;;18.63;58.00;101949.00;4998321;28;45480;-80
2022/05/27 09:33:05;;;;;;;;;3.25;3.25;;;;;18.85;57.88;101990.31;5093337;27;46099;-85
2022/05/27 09:35:46;;;;;;;;;3.25;3.25;;;;;18.78;58.28;101968.00;5093460;27;48546;-85
2022/05/27 09:38:22;;;;;;;;;4.75;4.75;;;;;18.98;58.48;102000.38;5112960;27;45425;-83
2022/05/27 09:41:09;;;;;;;;;2.25;2.25;;;;;19.04;58.42;101989.81;5112726;27;45511;-84
2022/05/27 09:44:17;;;;;;;;;4.50;4.00;;;;;19.01;57.98;101982.69;5112618;27;45487;-82
2022/05/27 09:46:42;;;;;;;;;3.50;2.75;;;;;18.98;58.12;101979.03;5111990;27;46220;-84
2022/05/27 09:49:08;;;;;;;;;2.50;2.50;;;;;18.86;58.82;101950.38;5093709;27;45430;-85
2022/05/27 09:51:33;;;;;;;;;3.50;3.25;;;;;18.84;58.06;101946.78;5112797;27;45449;-85
2022/05/27 09:54:34;;;;;;;;;2.25;2.25;;;;;19.08;58.48;101992.56;5112315;27;45474;-81
2022/05/27 09:57:04;;;;;;;;;3.00;3.00;;;;;18.87;58.49;101953.97;5111382;27;46231;-83
2022/05/27 09:59:41;;;;;;;;;3.75;3.00;;;;;19.17;58.48;101994.53;5112762;27;45495;-84
2022/05/27 10:02:26;;;;;;;;;3.50;2.00;;;;;19.20;57.95;101991.91;5112345;27;45558;-85
2022/05/27 10:05:02;;;;;;;;;2.75;2.75;;;;;18.91;58.29;101938.03;5111755;27;45512;-84
2022/05/27 10:07:33;;;;;;;;;2.75;2.75;;;;;19.27;58.25;101995.59;5112486;27;45711;-85
2022/05/27 10:10:15;;;;;;;;;5.25;4.50;;;;;19.30;58.38;101996.53;5107306;27;46029;-83
2022/05/27 10:12:40;;;;;;;;;3.00;3.00;;;;;19.15;58.68;101956.28;5091352;27;45460;-84
2022/05/27 10:15:06;;;;;;;;;3.00;3.00;;;;;19.35;58.62;101985.97;5091219;27;46740;-85
2022/05/27 10:17:36;;;;;;;;;3.25;3.25;;;;;19.13;59.46;101936.69;5091993;27;46270;-83
2022/05/27 10:20:33;;;;;;;;;5.00;4.50;;;;;19.14;59.27;101921.59;5091320;27;45922;-84
2022/05/27 10:23:08;;;;;;;;;4.50;4.00;;;;;19.56;58.90;101978.38;5091662;27;45619;-85
2022/05/27 10:25:35;;;;;;;;;3.00;3.00;;;;;19.67;58.75;101975.91;5091788;27;45519;-81
2022/05/27 10:28:02;;;;;;;;;2.00;2.00;;;;;19.74;58.92;101950.22;5072465;27;46461;-84
2022/05/27 10:30:31;;;;;;;;;3.00;3.00;;;;;19.76;58.48;101919.16;5091982;27;45576;-80
2022/05/27 10:33:13;;;;;;;;;2.75;2.75;;;;;19.94;57.35;101926.53;5096177;27;45285;-82
2022/05/27 10:35:39;;;;;;;;;2.00;2.00;;;;;19.91;57.34;101884.69;5118063;27;45356;-79
2022/05/27 10:38:42;;;;;;;;;4.00;4.00;;;;;20.81;56.50;101965.13;5116721;27;45701;-80
2022/05/27 10:41:41;;;;;;;;;3.25;3.25;;;;;20.84;56.05;101933.13;5114405;27;45935;-80
2022/05/27 10:44:19;;;;;;;;;10.25;8.00;;;;;21.07;55.70;101960.06;5126090;27;45365;-81
2022/05/27 10:46:55;;;;;;;;;5.00;5.00;;;;;21.12;56.60;101956.56;5125303;27;45604;-82
2022/05/27 10:49:27;;;;;;;;;4.25;3.00;;;;;21.21;56.15;101960.22;5100391;27;47094;-81
2022/05/27 10:52:23;;;;;;;;;3.00;3.00;;;;;21.33;56.21;101955.06;5099832;27;46678;-84
2022/05/27 10:55:07;;;;;;;;;3.00;3.00;;;;;21.57;55.44;101952.56;5121825;27;45154;-83
2022/05/27 11:04:13;;;;;;;;;3.00;2.75;;;;;21.76;55.00;101928.66;5126840;27;45618;-80
2022/05/27 11:07:10;;;;;;;;;2.50;2.00;;;;;21.77;54.72;101933.09;5128702;27;45181;-82
2022/05/27 11:10:11;;;;;;;;;1.50;1.25;;;;;21.95;54.27;101946.63;5115032;27;45748;-80
2022/05/27 11:16:29;;;;;;;;;2.00;2.00;;;;;21.81;53.73;101953.66;5118337;27;45848;-80
2022/05/27 11:19:13;;;;;;;;;2.00;2.00;;;;;21.64;54.15;101949.09;5117615;27;45351;-80
2022/05/27 11:22:02;;;;;;;;;2.25;2.25;;;;;21.45;54.04;101948.91;5130009;27;45271;-81
2022/05/27 11:25:08;;;;;;;;;3.00;3.00;;;;;21.14;54.75;101924.53;5107092;27;48234;-83
2022/05/27 11:28:01;;;;;;;;;3.25;3.00;;;;;21.32;54.72;101942.53;5099171;27;45554;-80
2022/05/27 11:30:36;;;;;;;;;4.00;3.75;;;;;21.57;53.97;101949.91;5103809;27;45192;-80
2022/05/27 11:33:27;;;;;;;;;1.75;1.00;;;;;21.73;54.34;101936.66;5103161;27;45925;-79
2022/05/27 11:36:19;;;;;;;;;2.00;2.00;;;;;21.67;53.97;101896.47;5090297;27;46995;-81
2022/05/27 11:38:56;;;;;;;;;2.25;2.25;;;;;21.78;53.42;101893.00;5103716;27;45855;-81
2022/05/27 11:41:32;;;;;;;;;2.50;2.50;;;;;22.12;53.11;101931.63;5106171;27;45491;-80
2022/05/27 11:43:58;;;;;;;;;1.50;1.50;;;;;22.39;53.64;101925.50;5073563;28;45488;-81
2022/05/27 11:46:31;;;;;;;;;2.75;2.00;;;;;22.47;52.10;101928.22;5089142;27;47254;-81
2022/05/27 11:49:09;;;;;;;;;3.00;2.00;;;;;22.31;51.91;101919.19;5105293;27;45474;-80
2022/05/27 11:51:50;;;;;;;;;2.00;2.00;;;;;22.35;52.18;101922.78;5105334;27;45386;-80
2022/05/27 11:54:27;;;;;;;;;2.50;2.00;;;;;22.52;51.73;101929.16;5092745;27;45838;-82
2022/05/27 11:56:53;;;;;;;;;3.00;2.25;;;;;22.74;51.73;101929.22;5105266;27;47120;-81
2022/05/27 11:59:24;;;;;;;;;2.00;2.00;;;;;22.82;51.27;101900.66;5095392;27;45535;-80
2022/05/27 12:02:11;;;;;;;;;3.50;2.75;;;;;23.14;50.74;101919.50;5095986;27;45542;-80
2022/05/27 12:04:46;;;;;;;;;2.00;2.00;;;;;23.11;50.65;101892.72;5097460;27;45493;-79
2022/05/27 12:07:23;;;;;;;;;2.00;2.00;;;;;23.32;49.52;101913.28;5104033;27;47063;-81
2022/05/27 12:10:30;;;;;;;;;1.75;1.75;;;;;23.25;50.02;101916.84;5100773;27;45907;-79
2022/05/27 12:13:05;;;;;;;;;2.00;2.00;;;;;23.07;51.00;101902.53;5091877;27;45863;-82
2022/05/27 12:15:48;;;;;;;;;2.00;2.00;;;;;23.12;49.95;101914.16;5091969;27;45950;-80
2022/05/27 12:18:24;;;;;;;;;2.00;2.00;;;;;22.73;50.48;101852.38;5092345;27;45430;-81
2022/05/27 12:20:51;;;;;;;;;2.00;2.00;;;;;23.00;50.28;101906.06;5091168;27;45865;-81